Time;durP1;ratioP1;P1;durP2;ratioP2;P2;SDS_P1;SDS_P2;PMS_P1;PMS_P2;Temp;Humidity;BMP_temperature;BMP_pressure;BME280_temperature;BME280_humidity;BME280_pressure;Samples;Min_cycle;Max_cycle;Signal;HPM_P1;HPM_P2
2024/04/03 00:01:01;;;;;;;13.33;5.63;;;9.90;99.90;;;;;;5036593;28;20274;-81
2024/04/03 00:03:28;;;;;;;9.37;5.40;;;9.80;99.90;;;;;;5041872;28;20267;-79
2024/04/03 00:05:54;;;;;;;11.93;5.97;;;9.80;99.90;;;;;;5043029;28;20282;-81
2024/04/03 00:08:20;;;;;;;13.47;5.37;;;9.80;99.90;;;;;;5038816;28;20203;-80
2024/04/03 00:10:46;;;;;;;10.87;5.70;;;9.80;99.90;;;;;;5041205;28;20196;-81
2024/04/03 00:13:13;;;;;;;8.53;5.60;;;9.70;99.90;;;;;;5037302;28;20204;-79
2024/04/03 00:15:39;;;;;;;11.67;5.90;;;9.70;1.00;;;;;;5034153;28;20231;-81
2024/04/03 00:18:08;;;;;;;13.60;6.17;;;9.70;1.00;;;;;;5041101;28;20219;-79
2024/04/03 00:20:34;;;;;;;11.27;6.10;;;9.70;1.00;;;;;;5032193;28;20204;-79
2024/04/03 00:23:01;;;;;;;14.53;6.17;;;9.60;1.00;;;;;;5043479;28;20270;-79
2024/04/03 00:25:27;;;;;;;13.70;7.00;;;9.60;1.00;;;;;;5051378;28;20469;-79
2024/04/03 00:27:54;;;;;;;10.07;5.90;;;9.50;1.00;;;;;;5041104;28;20649;-81
2024/04/03 00:30:20;;;;;;;11.57;6.17;;;9.60;1.00;;;;;;5043321;28;20255;-79
2024/04/03 00:32:47;;;;;;;10.87;6.57;;;9.50;1.00;;;;;;5031490;28;20654;-79
2024/04/03 00:35:14;;;;;;;12.10;6.73;;;9.40;1.00;;;;;;5042014;28;20227;-81
2024/04/03 00:37:43;;;;;;;12.90;6.53;;;9.40;1.00;;;;;;5036041;28;20200;-81
2024/04/03 00:40:10;;;;;;;11.93;6.20;;;9.40;1.00;;;;;;5039586;28;20227;-81
2024/04/03 00:42:37;;;;;;;12.80;6.20;;;9.30;1.00;;;;;;5042052;28;20292;-81
2024/04/03 00:45:03;;;;;;;13.20;6.40;;;9.30;43.90;;;;;;5033186;28;20305;-81
2024/04/03 00:47:30;;;;;;;11.23;6.20;;;9.30;44.70;;;;;;5043729;28;20239;-80
2024/04/03 00:49:58;;;;;;;13.17;7.03;;;9.30;99.90;;;;;;5043402;28;20204;-81
2024/04/03 00:52:27;;;;;;;16.33;7.23;;;9.30;99.90;;;;;;5053431;28;20202;-81
2024/04/03 00:54:53;;;;;;;15.97;6.80;;;9.20;1.00;;;;;;5038576;28;20654;-81
2024/04/03 00:57:20;;;;;;;11.33;6.80;;;9.20;1.00;;;;;;5036866;28;20203;-79
2024/04/03 00:59:45;;;;;;;13.43;7.40;;;9.10;1.00;;;;;;5048087;28;20207;-81
2024/04/03 01:02:13;;;;;;;14.13;7.40;;;9.10;1.00;;;;;;5041605;28;20227;-81
2024/04/03 01:04:39;;;;;;;15.50;7.20;;;9.00;1.00;;;;;;5036302;28;20235;-81
2024/04/03 01:07:06;;;;;;;14.80;7.40;;;8.90;99.90;;;;;;5044728;28;20223;-79
2024/04/03 01:09:34;;;;;;;11.00;7.67;;;9.00;99.90;;;;;;5040545;28;20203;-81
2024/04/03 01:12:01;;;;;;;16.67;7.90;;;9.10;1.00;;;;;;5040761;28;20278;-81
2024/04/03 01:14:27;;;;;;;18.10;9.27;;;9.10;1.00;;;;;;5041458;28;20214;-80
2024/04/03 01:16:54;;;;;;;22.13;9.33;;;9.10;1.00;;;;;;5040593;28;20219;-78
2024/04/03 01:19:20;;;;;;;17.53;8.77;;;9.20;1.00;;;;;;5029698;28;20216;-82
2024/04/03 01:21:47;;;;;;;16.17;8.63;;;9.20;1.00;;;;;;5038830;28;20215;-82
2024/04/03 01:24:20;;;;;;;17.00;8.47;;;9.30;1.00;;;;;;5037962;28;20234;-81
2024/04/03 01:26:47;;;;;;;13.40;8.00;;;9.30;1.00;;;;;;5039739;28;20220;-80
2024/04/03 01:29:13;;;;;;;16.57;9.07;;;9.30;1.00;;;;;;5037621;28;20719;-82
2024/04/03 01:31:40;;;;;;;21.77;9.20;;;9.40;1.00;;;;;;5043297;28;20657;-81
2024/04/03 01:34:06;;;;;;;16.10;7.83;;;9.40;1.00;;;;;;5043933;28;20728;-82
2024/04/03 01:36:33;;;;;;;13.87;7.90;;;9.50;99.90;;;;;;5035804;28;20250;-79
2024/04/03 01:38:59;;;;;;;15.53;8.10;;;9.50;99.90;;;;;;5039446;28;20203;-81
2024/04/03 01:41:28;;;;;;;17.90;8.60;;;9.40;99.90;;;;;;5042356;28;20266;-80
2024/04/03 01:43:54;;;;;;;15.67;7.73;;;9.40;99.90;;;;;;5050303;28;20229;-82
2024/04/03 01:46:20;;;;;;;15.00;7.97;;;9.30;99.90;;;;;;5042718;28;20223;-80
2024/04/03 01:48:48;;;;;;;16.73;8.23;;;9.30;99.90;;;;;;5045242;28;20219;-81
2024/04/03 01:51:15;;;;;;;14.93;7.13;;;9.30;1.00;;;;;;5040919;28;20200;-82
2024/04/03 01:53:41;;;;;;;15.27;7.03;;;9.30;1.00;;;;;;5042440;28;20203;-81
2024/04/03 01:56:08;;;;;;;12.53;6.70;;;9.30;1.00;;;;;;5042923;28;20289;-82
2024/04/03 01:58:35;;;;;;;13.07;6.23;;;9.30;99.90;;;;;;5041070;28;20203;-82
2024/04/03 02:01:02;;;;;;;14.67;6.20;;;9.30;99.90;;;;;;5050683;28;20399;-81
2024/04/03 02:03:28;;;;;;;13.77;5.90;;;9.30;99.90;;;;;;5034675;28;20223;-81
2024/04/03 02:05:55;;;;;;;18.93;6.03;;;9.30;99.90;;;;;;5041461;28;20266;-80
2024/04/03 02:08:21;;;;;;;13.60;6.00;;;9.30;94.40;;;;;;5047896;28;20207;-80
2024/04/03 02:10:48;;;;;;;12.47;4.73;;;9.40;26.40;;;;;;5038319;28;20581;-82
2024/04/03 02:13:13;;;;;;;15.60;5.30;;;9.30;53.70;;;;;;5035977;28;20723;-81
2024/04/03 02:15:52;;;;;;;12.63;4.87;;;9.40;32.80;;;;;;5041627;28;20230;-81
2024/04/03 02:18:17;;;;;;;13.03;5.73;;;9.40;1.00;;;;;;5041116;28;20230;-81
2024/04/03 02:20:44;;;;;;;11.10;4.77;;;9.40;1.00;;;;;;5041578;28;20413;-82
2024/04/03 02:23:10;;;;;;;14.27;5.70;;;9.30;99.90;;;;;;5035143;28;20262;-80
2024/04/03 02:25:38;;;;;;;11.17;5.13;;;9.40;99.90;;;;;;5040454;28;20592;-80
2024/04/03 02:28:04;;;;;;;10.50;5.23;;;9.40;99.90;;;;;;5042178;28;20210;-81
2024/04/03 02:30:31;;;;;;;10.37;4.73;;;9.40;99.90;;;;;;5040435;28;20210;-81
2024/04/03 02:32:58;;;;;;;10.00;4.53;;;9.40;99.90;;;;;;5032314;28;20197;-81
2024/04/03 02:35:27;;;;;;;12.30;4.70;;;9.40;99.90;;;;;;5038366;28;20230;-80
2024/04/03 02:37:53;;;;;;;12.17;4.97;;;9.40;99.90;;;;;;5036892;28;20207;-81
2024/04/03 02:40:20;;;;;;;23.60;13.93;;;9.30;1.00;;;;;;5042495;28;20226;-81
2024/04/03 02:42:46;;;;;;;16.57;6.13;;;9.30;1.00;;;;;;5041288;28;20270;-81
2024/04/03 02:45:13;;;;;;;9.40;4.70;;;9.30;1.00;;;;;;5043655;28;20223;-81
2024/04/03 02:47:39;;;;;;;11.37;4.33;;;9.30;1.00;;;;;;5039322;28;20208;-80
2024/04/03 02:50:08;;;;;;;8.60;4.30;;;9.40;1.00;;;;;;5032461;28;20197;-79
2024/04/03 02:52:33;;;;;;;13.77;4.50;;;9.30;1.00;;;;;;5040344;28;20231;-81
2024/04/03 02:55:04;;;;;;;11.70;4.40;;;9.30;99.90;;;;;;5026456;28;20569;-81
2024/04/03 02:57:30;;;;;;;16.77;4.37;;;9.30;99.90;;;;;;5036911;28;20207;-82
2024/04/03 02:59:57;;;;;;;14.00;4.73;;;9.30;24.50;;;;;;5039860;28;20250;-81
2024/04/03 03:02:23;;;;;;;12.53;4.07;;;9.30;1.00;;;;;;5039157;28;20228;-81
2024/04/03 03:04:50;;;;;;;10.90;4.10;;;9.40;1.00;;;;;;5042666;28;20576;-83
2024/04/03 03:07:17;;;;;;;8.30;3.90;;;9.30;1.00;;;;;;5042040;28;20254;-81
2024/04/03 03:09:44;;;;;;;9.93;3.63;;;9.40;1.00;;;;;;5033982;28;20284;-81
2024/04/03 03:12:10;;;;;;;12.17;3.57;;;9.30;1.00;;;;;;5031139;28;20200;-81
2024/04/03 03:14:37;;;;;;;19.03;5.43;;;9.30;1.00;;;;;;5043208;28;20715;-80
2024/04/03 03:17:03;;;;;;;12.10;3.70;;;9.30;3.50;;;;;;5041316;28;20231;-80
2024/04/03 03:19:29;;;;;;;8.93;3.40;;;9.20;99.90;;;;;;5026441;28;20242;-80
2024/04/03 03:21:55;;;;;;;12.03;3.57;;;9.20;99.90;;;;;;5038941;28;20220;-82
2024/04/03 03:24:24;;;;;;;9.80;4.03;;;9.20;1.00;;;;;;5040937;28;20626;-83
2024/04/03 03:26:51;;;;;;;10.17;3.07;;;9.20;1.00;;;;;;5026854;28;20250;-82
2024/04/03 03:29:18;;;;;;;14.30;6.37;;;9.20;99.90;;;;;;5042702;28;20279;-81
2024/04/03 03:31:44;;;;;;;17.07;4.23;;;9.20;99.90;;;;;;5043231;28;20209;-83
2024/04/03 03:34:11;;;;;;;9.40;4.40;;;9.10;99.90;;;;;;5041358;28;20207;-81
2024/04/03 03:36:37;;;;;;;11.17;3.70;;;9.10;99.90;;;;;;5042782;28;20599;-81
2024/04/03 03:39:04;;;;;;;8.27;2.90;;;9.20;1.00;;;;;;5042833;28;20200;-81
2024/04/03 03:41:32;;;;;;;10.07;2.93;;;9.20;1.00;;;;;;5042830;28;20239;-82
2024/04/03 03:43:59;;;;;;;4.67;2.90;;;9.20;1.00;;;;;;5047204;28;20211;-81
2024/04/03 03:46:26;;;;;;;9.90;2.90;;;9.20;1.00;;;;;;5036837;28;20215;-81
2024/04/03 03:54:29;;;;;;;12.83;2.80;;;9.10;92.10;;;;;;5017060;28;20686;-82
2024/04/03 03:56:58;;;;;;;11.53;2.47;;;9.00;99.90;;;;;;5041445;28;20215;-80
2024/04/03 03:59:24;;;;;;;7.47;2.70;;;9.10;99.90;;;;;;5042719;28;20227;-81
2024/04/03 04:01:51;;;;;;;6.70;2.33;;;9.00;99.90;;;;;;5043277;28;20220;-81
2024/04/03 04:04:18;;;;;;;9.00;2.70;;;9.00;99.90;;;;;;5043087;28;20601;-80
2024/04/03 04:06:44;;;;;;;10.87;2.83;;;9.00;1.00;;;;;;5043473;28;20250;-81
2024/04/03 04:09:11;;;;;;;8.87;3.90;;;9.00;1.00;;;;;;5046778;28;20200;-80
2024/04/03 04:11:38;;;;;;;8.87;2.90;;;9.00;1.00;;;;;;5042266;28;20199;-81
2024/04/03 04:14:06;;;;;;;9.17;3.20;;;9.00;1.00;;;;;;5043605;28;20200;-82
2024/04/03 04:16:32;;;;;;;8.53;2.60;;;9.00;1.00;;;;;;5037214;28;20286;-79
2024/04/03 04:18:59;;;;;;;10.67;2.83;;;9.00;1.00;;;;;;5045681;28;20674;-81
2024/04/03 04:21:25;;;;;;;7.93;2.90;;;9.10;1.00;;;;;;5044315;28;20200;-80
2024/04/03 04:23:52;;;;;;;10.20;2.93;;;9.10;1.00;;;;;;5042452;28;20254;-81
2024/04/03 04:26:17;;;;;;;6.73;2.53;;;9.20;99.90;;;;;;5050825;28;20231;-81
2024/04/03 04:28:44;;;;;;;8.00;2.90;;;9.20;1.00;;;;;;5043468;28;20657;-81
2024/04/03 04:31:12;;;;;;;7.57;3.00;;;9.30;1.00;;;;;;5034170;28;20212;-80
2024/04/03 04:33:39;;;;;;;12.67;4.43;;;9.30;1.00;;;;;;5041631;28;20254;-82
2024/04/03 04:36:05;;;;;;;9.03;3.47;;;9.50;1.00;;;;;;5041690;28;20277;-81
2024/04/03 04:38:32;;;;;;;8.97;2.83;;;9.50;1.00;;;;;;5042096;28;20223;-81
2024/04/03 04:40:59;;;;;;;9.57;3.00;;;9.60;99.90;;;;;;5041051;28;20645;-82
2024/04/03 04:43:28;;;;;;;10.33;2.93;;;9.60;99.90;;;;;;5040895;28;20215;-82
2024/04/03 04:45:55;;;;;;;6.57;2.50;;;9.50;99.90;;;;;;5045664;28;20223;-80
2024/04/03 04:48:24;;;;;;;9.27;2.77;;;9.50;99.90;;;;;;5041138;28;20196;-81
2024/04/03 04:50:51;;;;;;;6.03;2.60;;;9.50;1.00;;;;;;5042588;28;20203;-81
2024/04/03 04:53:18;;;;;;;7.67;2.97;;;9.40;99.90;;;;;;5043312;28;20219;-83
2024/04/03 04:55:52;;;;;;;6.80;3.00;;;9.50;1.00;;;;;;5042429;28;20254;-81
2024/04/03 04:58:19;;;;;;;7.80;3.67;;;9.60;99.90;;;;;;5034205;28;20222;-81
2024/04/03 05:00:45;;;;;;;9.73;3.20;;;9.60;99.90;;;;;;5041980;28;20208;-80
2024/04/03 05:03:12;;;;;;;12.77;4.47;;;9.70;1.00;;;;;;5034892;28;20286;-81
2024/04/03 05:05:39;;;;;;;11.47;3.70;;;9.80;1.00;;;;;;5040997;28;20261;-81
2024/04/03 05:08:07;;;;;;;8.57;3.60;;;9.80;1.00;;;;;;5033424;28;20208;-80
2024/04/03 05:10:33;;;;;;;8.57;3.13;;;9.80;1.00;;;;;;5040265;28;20210;-80
2024/04/03 05:13:00;;;;;;;6.10;3.27;;;9.80;1.00;;;;;;5038232;28;20223;-81
2024/04/03 05:15:28;;;;;;;7.80;3.00;;;9.80;1.00;;;;;;5038220;28;20227;-79
2024/04/03 05:17:55;;;;;;;8.07;3.10;;;9.80;1.00;;;;;;5039297;28;20219;-80
2024/04/03 05:20:21;;;;;;;8.10;3.20;;;9.80;99.90;;;;;;5042091;28;20204;-81
2024/04/03 05:22:49;;;;;;;6.33;3.10;;;9.80;99.90;;;;;;5042180;28;20234;-82
2024/04/03 05:25:15;;;;;;;7.20;3.07;;;9.80;1.00;;;;;;5041862;28;20224;-80
2024/04/03 05:27:42;;;;;;;13.90;3.90;;;9.80;1.00;;;;;;5038591;28;20703;-82
2024/04/03 05:30:09;;;;;;;7.10;2.90;;;9.70;1.00;;;;;;5041473;28;20254;-82
2024/04/03 05:32:36;;;;;;;5.40;3.03;;;9.70;80.00;;;;;;5040912;28;20283;-80
2024/04/03 05:35:02;;;;;;;5.17;2.60;;;9.70;1.00;;;;;;5041789;28;20204;-80
2024/04/03 05:37:29;;;;;;;6.60;3.00;;;9.70;99.90;;;;;;5029407;28;20279;-81
2024/04/03 05:39:57;;;;;;;7.40;3.57;;;9.70;1.00;;;;;;5042400;28;20210;-82
2024/04/03 05:42:24;;;;;;;6.80;3.10;;;9.60;1.00;;;;;;5042303;28;20219;-81
2024/04/03 05:44:50;;;;;;;7.47;3.17;;;9.60;1.00;;;;;;5039405;28;20207;-82
2024/04/03 05:47:17;;;;;;;9.50;3.93;;;9.60;99.90;;;;;;5040713;28;20229;-80
2024/04/03 05:49:43;;;;;;;3.93;3.10;;;9.50;99.90;;;;;;5038643;28;20269;-80
2024/04/03 05:52:10;;;;;;;6.67;3.23;;;9.50;99.90;;;;;;5037450;28;20199;-80
2024/04/03 05:54:36;;;;;;;3.87;3.30;;;9.50;99.90;;;;;;5030160;28;20208;-81
2024/04/03 05:57:05;;;;;;;6.17;3.30;;;9.50;99.90;;;;;;5030602;28;20274;-81
2024/04/03 05:59:31;;;;;;;7.33;3.17;;;9.50;99.90;;;;;;5025757;28;20243;-80
2024/04/03 06:01:58;;;;;;;5.25;2.85;;;9.50;99.90;;;;;;5033920;28;20641;-80
2024/04/03 06:04:24;;;;;;;5.50;2.70;;;9.50;99.90;;;;;;5033308;28;20249;-80
2024/04/03 06:06:53;;;;;;;6.57;3.03;;;9.50;99.90;;;;;;5034465;28;20219;-80
2024/04/03 06:09:19;;;;;;;5.47;2.70;;;9.50;99.90;;;;;;5039440;28;20211;-80
2024/04/03 06:11:48;;;;;;;7.57;3.10;;;9.50;99.90;;;;;;5035630;28;20245;-82
2024/04/03 06:14:16;;;;;;;8.27;3.23;;;9.60;99.90;;;;;;5034428;28;20204;-81
2024/04/03 06:16:43;;;;;;;4.53;2.77;;;9.60;99.90;;;;;;5035758;28;20318;-80
2024/04/03 06:19:12;;;;;;;4.17;2.80;;;9.60;99.90;;;;;;5032146;28;20235;-80
2024/04/03 06:21:39;;;;;;;7.70;2.97;;;9.60;99.90;;;;;;5040056;28;20541;-79
2024/04/03 06:24:06;;;;;;;7.10;3.00;;;9.60;99.90;;;;;;5030055;28;20247;-79
2024/04/03 06:26:33;;;;;;;3.83;3.00;;;9.50;99.90;;;;;;5038588;28;20226;-81
2024/04/03 06:29:04;;;;;;;3.53;3.00;;;9.40;99.90;;;;;;5031766;28;20264;-81
2024/04/03 06:31:32;;;;;;;4.53;3.30;;;9.40;99.90;;;;;;5039476;28;20249;-81
2024/04/03 06:34:00;;;;;;;4.60;2.70;;;9.40;99.90;;;;;;5043653;28;20204;-80
2024/04/03 06:36:27;;;;;;;4.00;3.07;;;9.40;99.90;;;;;;5035573;28;20223;-80
2024/04/03 06:38:54;;;;;;;4.77;3.27;;;9.40;99.90;;;;;;5036643;28;20226;-80
2024/04/03 06:41:20;;;;;;;5.00;3.20;;;9.40;99.90;;;;;;5027518;28;20270;-81
2024/04/03 06:43:47;;;;;;;4.03;2.90;;;9.40;99.90;;;;;;5035693;28;20219;-80
2024/04/03 06:51:41;;;;;;;5.23;3.30;;;9.60;99.90;;;;;;5026693;28;20212;-79
2024/04/03 07:39:43;;;;;;;5.70;3.90;;;11.10;99.90;;;;;;4926902;29;20264;-80
2024/04/03 07:42:51;;;;;;;5.03;3.60;;;11.20;99.90;;;;;;4904840;29;20683;-81
2024/04/03 07:52:43;;;;;;;;;;;;;;;;;;;;;
2024/04/03 07:56:22;;;;;;;4.43;3.07;;;11.50;99.90;;;;;;4860683;29;20241;-80
2024/04/03 07:59:16;;;;;;;;;;;;;;;;;;;;;
2024/04/03 08:04:55;;;;;;;4.57;2.90;;;11.20;99.90;;;;;;4938705;28;20229;-81
2024/04/03 08:09:03;;;;;;;4.07;2.80;;;11.40;99.90;;;;;;4996811;28;20222;-80
2024/04/03 08:17:47;;;;;;;3.37;2.60;;;11.60;99.90;;;;;;4942690;29;20215;-80
2024/04/03 08:20:58;;;;;;;3.77;2.40;;;11.80;99.90;;;;;;4951680;29;20241;-80
2024/04/03 08:30:57;;;;;;;2.60;2.40;;;11.80;99.90;;;;;;4919345;28;20241;-80
2024/04/03 08:34:01;;;;;;;2.50;2.30;;;12.00;99.90;;;;;;5053474;28;20268;-81
2024/04/03 08:39:37;;;;;;;2.03;1.93;;;11.90;99.90;;;;;;5062992;28;20309;-80
2024/04/03 08:40:30;;;;;;;2.57;2.37;;;12.20;1.00;;;;;;4984985;28;20285;-80
2024/04/03 08:46:42;;;;;;;3.63;1.90;;;12.40;1.00;;;;;;4975722;28;20602;-80
2024/04/03 08:55:53;;;;;;;1.90;1.70;;;12.30;1.00;;;;;;5056851;28;20227;-81
2024/04/03 08:58:21;;;;;;;3.10;1.63;;;12.30;18.30;;;;;;5056224;28;20212;-79
2024/04/03 09:00:49;;;;;;;2.40;1.40;;;12.20;1.00;;;;;;5057794;28;20206;-80
2024/04/03 09:03:17;;;;;;;3.07;1.50;;;12.50;1.00;;;;;;5051993;28;20247;-80
2024/04/03 09:05:46;;;;;;;6.60;1.50;;;12.50;1.00;;;;;;5042599;28;20214;-81
2024/04/03 09:08:13;;;;;;;2.10;1.40;;;12.30;84.30;;;;;;5056328;28;20211;-80
2024/04/03 09:10:44;;;;;;;2.33;1.47;;;12.30;1.00;;;;;;5049945;28;20205;-80
2024/04/03 09:13:11;;;;;;;2.00;1.63;;;12.30;1.00;;;;;;5053723;28;20212;-80
2024/04/03 09:15:38;;;;;;;2.27;1.50;;;12.20;1.00;;;;;;5038947;28;20224;-81
2024/04/03 09:18:06;;;;;;;2.43;1.30;;;12.30;1.00;;;;;;5048735;28;20618;-81
2024/04/03 09:20:34;;;;;;;2.40;1.30;;;12.20;1.00;;;;;;5054842;28;20199;-81
2024/04/03 09:23:01;;;;;;;2.10;1.40;;;12.20;1.00;;;;;;5052058;28;20218;-81
2024/04/03 09:25:28;;;;;;;1.37;1.27;;;12.10;1.00;;;;;;5048559;28;20250;-80
2024/04/03 09:28:02;;;;;;;2.63;1.17;;;12.10;1.00;;;;;;5050631;28;20276;-80
2024/04/03 09:30:30;;;;;;;1.63;1.00;;;12.00;1.00;;;;;;5047593;28;20242;-80
2024/04/03 09:32:57;;;;;;;1.53;1.23;;;12.10;1.00;;;;;;5059361;28;20645;-81
2024/04/03 09:35:28;;;;;;;2.30;0.90;;;12.10;1.00;;;;;;5057082;28;20223;-80
2024/04/03 09:37:55;;;;;;;1.13;1.00;;;12.10;1.00;;;;;;5060291;28;20256;-80
2024/04/03 09:40:25;;;;;;;1.80;1.30;;;12.10;99.90;;;;;;5051496;28;20218;-80
2024/04/03 09:42:56;;;;;;;1.10;1.00;;;12.10;99.90;;;;;;5048145;28;20669;-80
2024/04/03 09:45:24;;;;;;;1.60;1.03;;;12.20;1.00;;;;;;5047800;28;20227;-80
2024/04/03 09:47:58;;;;;;;4.00;1.23;;;12.20;1.00;;;;;;5050519;28;20443;-80
2024/04/03 09:50:32;;;;;;;1.97;1.10;;;12.20;1.00;;;;;;5070849;28;20289;-81
2024/04/03 09:52:59;;;;;;;3.20;1.60;;;12.20;1.00;;;;;;5068840;28;20300;-82
2024/04/03 09:55:28;;;;;;;2.63;1.00;;;12.30;1.00;;;;;;5049593;28;20651;-81
2024/04/03 09:58:01;;;;;;;2.33;1.30;;;12.20;1.00;;;;;;5056975;28;20285;-81
2024/04/03 10:00:28;;;;;;;2.97;1.37;;;12.20;99.90;;;;;;5057824;28;20198;-80
2024/04/03 10:02:54;;;;;;;2.13;1.23;;;12.30;1.00;;;;;;5046184;28;20227;-81
2024/04/03 10:05:22;;;;;;;2.03;0.97;;;12.40;1.00;;;;;;5040719;28;20227;-80
2024/04/03 10:08:02;;;;;;;1.23;1.00;;;12.50;99.90;;;;;;5048994;28;20200;-82
2024/04/03 10:10:31;;;;;;;1.33;1.03;;;12.50;1.00;;;;;;5051671;28;20245;-80
2024/04/03 10:13:00;;;;;;;3.43;1.10;;;12.50;99.90;;;;;;5043482;28;20603;-81
2024/04/03 10:15:27;;;;;;;2.67;1.00;;;12.60;75.40;;;;;;5045114;28;20289;-80
2024/04/03 10:17:54;;;;;;;1.10;0.90;;;12.80;1.00;;;;;;5062062;28;20288;-80
2024/04/03 10:20:44;;;;;;;2.63;0.90;;;13.00;1.00;;;;;;5063743;28;20198;-80
2024/04/03 10:23:14;;;;;;;1.00;0.87;;;12.80;1.00;;;;;;5023154;28;20265;-81
2024/04/03 10:25:41;;;;;;;0.77;0.60;;;13.20;1.00;;;;;;5060262;28;20723;-81
2024/04/03 10:28:12;;;;;;;2.83;0.97;;;13.10;1.00;;;;;;5048924;28;20190;-82
2024/04/03 10:30:38;;;;;;;2.00;0.80;;;13.40;99.90;;;;;;5049541;28;20215;-81
2024/04/03 10:33:06;;;;;;;1.40;1.00;;;13.30;99.90;;;;;;5059545;28;20194;-82
2024/04/03 10:35:32;;;;;;;1.90;1.00;;;13.40;1.00;;;;;;5051863;28;20440;-80
2024/04/03 10:37:59;;;;;;;0.80;0.80;;;13.50;99.90;;;;;;5060481;28;20198;-81
2024/04/03 10:40:25;;;;;;;1.27;0.80;;;13.30;1.00;;;;;;5058879;28;20213;-82
2024/04/03 10:42:54;;;;;;;1.97;1.20;;;13.30;99.90;;;;;;5062552;28;20205;-81
2024/04/03 10:45:20;;;;;;;2.73;0.70;;;13.30;1.00;;;;;;5055578;28;20261;-81
2024/04/03 10:47:48;;;;;;;1.67;0.97;;;13.40;1.00;;;;;;5060082;28;20200;-81
2024/04/03 10:50:14;;;;;;;1.77;0.90;;;13.30;1.00;;;;;;5053894;28;20203;-80
2024/04/03 10:52:41;;;;;;;2.37;0.80;;;13.40;1.00;;;;;;5050087;28;20206;-80
2024/04/03 10:55:07;;;;;;;2.80;1.20;;;13.40;1.00;;;;;;5044527;28;20314;-81
2024/04/03 10:57:34;;;;;;;3.47;1.57;;;13.50;1.00;;;;;;5054566;28;20226;-81
2024/04/03 11:00:02;;;;;;;2.70;1.23;;;13.40;1.00;;;;;;5061822;28;20199;-81
2024/04/03 11:02:29;;;;;;;1.70;0.70;;;13.30;99.90;;;;;;5061857;28;20291;-81
2024/04/03 11:04:55;;;;;;;2.90;0.90;;;13.40;99.90;;;;;;5055690;28;20226;-80
2024/04/03 11:07:24;;;;;;;1.90;0.90;;;13.40;7.10;;;;;;5058448;28;20204;-80
2024/04/03 11:09:50;;;;;;;2.07;0.97;;;13.30;97.40;;;;;;5061646;28;20219;-81
2024/04/03 11:12:19;;;;;;;2.43;0.70;;;13.50;1.00;;;;;;5060503;28;20206;-79
2024/04/03 11:14:46;;;;;;;4.03;1.27;;;13.30;1.00;;;;;;5054759;28;20235;-79
2024/04/03 11:17:14;;;;;;;2.60;1.10;;;13.30;1.00;;;;;;5057833;28;20203;-80
2024/04/03 11:19:42;;;;;;;1.53;0.77;;;13.30;1.00;;;;;;5053765;28;20203;-79
2024/04/03 11:22:09;;;;;;;1.97;0.97;;;13.40;1.00;;;;;;5049471;28;20202;-80
2024/04/03 11:24:35;;;;;;;1.43;0.90;;;13.40;1.00;;;;;;5053949;28;20245;-80
2024/04/03 11:27:03;;;;;;;3.73;1.07;;;13.50;1.00;;;;;;5056914;28;20716;-78
2024/04/03 11:29:31;;;;;;;3.53;1.43;;;13.50;1.00;;;;;;5052807;28;20203;-79
2024/04/03 11:32:00;;;;;;;3.83;1.10;;;13.40;1.00;;;;;;5049523;28;20207;-78
2024/04/03 11:34:28;;;;;;;5.50;3.20;;;13.30;1.00;;;;;;5057330;28;20199;-79
2024/04/03 11:36:56;;;;;;;2.83;1.70;;;13.40;1.00;;;;;;5058212;28;20692;-78
2024/04/03 11:39:23;;;;;;;3.47;1.40;;;13.30;1.00;;;;;;5049597;28;20238;-78
2024/04/03 11:41:50;;;;;;;4.20;1.57;;;13.30;1.00;;;;;;5045478;28;20276;-78
2024/04/03 11:44:16;;;;;;;2.30;1.23;;;13.20;1.00;;;;;;5046384;28;20693;-79
2024/04/03 11:46:43;;;;;;;3.90;1.30;;;13.10;99.90;;;;;;5045473;28;20211;-81
2024/04/03 11:49:09;;;;;;;2.30;1.30;;;13.20;1.00;;;;;;5053261;28;20230;-80
2024/04/03 11:51:37;;;;;;;1.83;1.40;;;13.20;1.00;;;;;;5050895;28;20198;-80
2024/04/03 11:54:03;;;;;;;2.53;1.20;;;13.40;1.00;;;;;;5054199;28;20827;-80
2024/04/03 11:56:31;;;;;;;1.97;1.30;;;13.30;1.00;;;;;;5057550;28;20582;-79
2024/04/03 11:58:58;;;;;;;1.77;1.20;;;13.40;99.90;;;;;;5049675;28;20206;-80
2024/04/03 12:01:25;;;;;;;1.67;1.40;;;13.50;99.90;;;;;;5053257;28;20253;-81
2024/04/03 12:03:51;;;;;;;6.00;0.97;;;13.50;99.90;;;;;;5052706;28;21427;-81
2024/04/03 12:06:18;;;;;;;2.40;1.00;;;13.30;1.00;;;;;;5052735;28;20222;-80
2024/04/03 12:08:48;;;;;;;2.10;1.00;;;13.50;1.00;;;;;;5049272;28;20333;-79
2024/04/03 12:11:15;;;;;;;3.27;1.10;;;13.30;99.90;;;;;;5049253;28;20209;-80
2024/04/03 12:13:42;;;;;;;1.33;1.00;;;13.10;1.00;;;;;;5048883;28;20196;-79
2024/04/03 12:16:10;;;;;;;3.03;1.10;;;13.10;1.00;;;;;;5048589;28;20216;-79
2024/04/03 12:18:37;;;;;;;2.30;1.20;;;13.10;1.00;;;;;;5054165;28;20575;-79
2024/04/03 12:21:07;;;;;;;2.30;1.20;;;13.10;1.00;;;;;;5049601;28;20348;-79
2024/04/03 12:23:34;;;;;;;4.83;1.30;;;13.10;1.00;;;;;;5049736;28;20223;-80
2024/04/03 12:26:02;;;;;;;2.17;1.10;;;13.10;1.00;;;;;;5057273;28;20325;-81
2024/04/03 12:28:28;;;;;;;2.60;1.20;;;13.10;1.00;;;;;;5057469;28;20572;-80
2024/04/03 12:30:55;;;;;;;1.60;1.00;;;13.00;1.00;;;;;;5053505;28;20210;-79
2024/04/03 12:33:21;;;;;;;2.67;1.30;;;12.90;1.00;;;;;;5047946;28;20211;-79
2024/04/03 12:35:48;;;;;;;3.57;1.30;;;13.00;1.00;;;;;;5053727;28;20211;-79
2024/04/03 12:38:17;;;;;;;2.13;1.40;;;12.90;1.00;;;;;;5052726;28;20199;-79
2024/04/03 12:40:44;;;;;;;1.40;0.80;;;13.00;1.00;;;;;;5054042;28;20319;-79
2024/04/03 12:43:11;;;;;;;2.47;1.17;;;13.00;99.90;;;;;;5051104;28;20226;-79
2024/04/03 12:45:38;;;;;;;3.23;1.03;;;13.00;1.00;;;;;;5054401;28;20254;-79
2024/04/03 12:48:04;;;;;;;3.03;1.30;;;13.00;1.00;;;;;;5062417;28;20631;-80
2024/04/03 12:50:31;;;;;;;2.33;1.30;;;13.00;99.90;;;;;;5045459;28;20199;-81
2024/04/03 12:52:57;;;;;;;1.87;1.27;;;13.00;1.00;;;;;;5057757;28;20251;-80
2024/04/03 12:55:24;;;;;;;1.93;1.30;;;13.10;1.00;;;;;;5054880;28;20219;-80
2024/04/03 12:57:50;;;;;;;1.97;1.07;;;13.10;99.90;;;;;;5057630;28;20234;-81
2024/04/03 13:00:18;;;;;;;1.77;1.40;;;13.10;1.00;;;;;;5055411;28;20200;-80
2024/04/03 13:02:44;;;;;;;1.63;0.90;;;13.30;1.00;;;;;;5046473;28;20225;-80
2024/04/03 13:05:11;;;;;;;2.33;1.30;;;13.40;99.90;;;;;;5059077;28;20650;-79
2024/04/03 13:07:37;;;;;;;1.30;1.00;;;13.40;1.00;;;;;;5059828;28;20254;-80
2024/04/03 13:10:05;;;;;;;1.77;1.10;;;13.40;1.00;;;;;;5055386;28;20196;-81
2024/04/03 13:12:31;;;;;;;2.30;1.10;;;13.60;1.00;;;;;;5052546;28;20214;-81
2024/04/03 13:14:58;;;;;;;4.83;1.30;;;13.70;1.00;;;;;;5055326;28;20661;-79
2024/04/03 13:17:26;;;;;;;4.27;2.77;;;13.60;1.00;;;;;;5055110;28;20207;-81
2024/04/03 13:19:56;;;;;;;3.97;1.40;;;13.60;1.00;;;;;;5055423;28;20234;-80
2024/04/03 13:22:23;;;;;;;2.77;1.37;;;13.60;1.00;;;;;;5051004;28;20211;-78
2024/04/03 13:24:50;;;;;;;3.83;1.33;;;13.70;1.00;;;;;;5056315;28;20685;-81
2024/04/03 13:27:15;;;;;;;2.17;1.20;;;13.60;99.90;;;;;;5052950;28;20207;-80
2024/04/03 13:29:42;;;;;;;2.13;1.20;;;13.70;1.00;;;;;;5058031;28;20199;-80
2024/04/03 13:32:08;;;;;;;4.97;1.43;;;13.70;1.00;;;;;;5056907;28;20221;-80
2024/04/03 13:34:37;;;;;;;2.47;1.20;;;13.60;99.90;;;;;;5056678;28;20199;-81
2024/04/03 13:37:03;;;;;;;4.47;1.53;;;13.60;1.00;;;;;;5056590;28;20250;-82
2024/04/03 13:39:30;;;;;;;3.77;1.00;;;13.60;99.90;;;;;;5052602;28;20234;-80
2024/04/03 13:41:56;;;;;;;1.73;1.10;;;13.50;99.90;;;;;;5054753;28;20218;-79
2024/04/03 13:44:23;;;;;;;3.30;1.80;;;13.50;99.90;;;;;;5056452;28;20231;-81
2024/04/03 13:46:49;;;;;;;4.33;1.73;;;13.60;99.90;;;;;;5059132;28;20223;-80
2024/04/03 13:49:16;;;;;;;3.53;1.30;;;13.60;1.00;;;;;;5059574;28;20249;-79
2024/04/03 13:51:44;;;;;;;3.17;1.13;;;13.50;1.00;;;;;;5058644;28;20202;-80
2024/04/03 13:54:11;;;;;;;1.07;0.97;;;13.40;1.00;;;;;;5061606;28;20671;-80
2024/04/03 13:56:40;;;;;;;1.43;1.00;;;13.40;1.00;;;;;;5048931;28;20235;-79
2024/04/03 13:59:07;;;;;;;2.07;1.20;;;13.30;1.00;;;;;;5055521;28;20253;-79
2024/04/03 14:01:33;;;;;;;1.90;1.10;;;13.10;1.00;;;;;;5051737;28;20211;-81
2024/04/03 14:04:00;;;;;;;4.17;1.27;;;13.00;1.00;;;;;;5046728;28;20773;-79
2024/04/03 14:06:26;;;;;;;3.67;1.23;;;13.00;1.00;;;;;;5056545;28;20227;-79
2024/04/03 14:08:54;;;;;;;4.17;2.47;;;12.90;1.00;;;;;;5056841;28;20203;-80
2024/04/03 14:11:21;;;;;;;3.37;1.80;;;12.90;99.90;;;;;;5048887;28;20210;-79
2024/04/03 14:13:50;;;;;;;2.63;1.37;;;13.00;1.00;;;;;;5049507;28;20199;-80
2024/04/03 14:16:18;;;;;;;4.23;1.67;;;12.80;99.90;;;;;;5051310;28;20314;-79
2024/04/03 14:18:47;;;;;;;1.17;1.07;;;13.00;1.00;;;;;;5055177;28;20221;-79
2024/04/03 14:21:14;;;;;;;1.27;1.13;;;13.00;1.00;;;;;;5048425;28;20203;-79
2024/04/03 14:23:40;;;;;;;1.13;1.00;;;12.90;99.90;;;;;;5047567;28;20207;-80
2024/04/03 14:26:08;;;;;;;4.70;1.10;;;12.90;1.00;;;;;;5046988;28;20226;-80
2024/04/03 14:28:34;;;;;;;2.07;1.30;;;12.80;99.90;;;;;;5057808;28;20214;-79
2024/04/03 14:31:01;;;;;;;1.87;1.10;;;13.00;1.00;;;;;;5049816;28;20206;-79
2024/04/03 14:33:27;;;;;;;2.40;1.00;;;12.90;1.00;;;;;;5050411;28;20234;-80
2024/04/03 14:35:54;;;;;;;3.43;1.10;;;12.90;1.00;;;;;;5055240;28;20242;-81